createdAt,value
2019-05-25T00:00:19.135Z,11.88
2019-05-25T00:02:47.621Z,11.48
2019-05-25T00:05:16.473Z,9.63
2019-05-25T00:07:44.905Z,10.35
2019-05-25T00:10:13.949Z,8.63
2019-05-25T00:12:43.298Z,9.58
2019-05-25T00:15:12.143Z,6.53
2019-05-25T00:17:40.577Z,8.75
2019-05-25T00:20:29.898Z,12.88
2019-05-25T00:22:58.337Z,11.10
2019-05-25T00:25:27.067Z,7.03
2019-05-25T00:27:55.750Z,9.25
2019-05-25T00:30:25.169Z,7.47
2019-05-25T00:32:53.954Z,7.35
2019-05-25T00:35:22.746Z,6.28
2019-05-25T00:37:52.113Z,7.08
2019-05-25T00:40:20.838Z,13.13
2019-05-25T00:42:49.626Z,12.78
2019-05-25T00:45:19.063Z,10.98
2019-05-25T00:47:47.517Z,14.38
2019-05-25T00:50:16.526Z,9.93
2019-05-25T00:52:45.256Z,14.40
2019-05-25T00:55:14.264Z,9.28
2019-05-25T00:57:42.713Z,13.53
2019-05-25T01:00:17.320Z,10.58
2019-05-25T01:02:45.793Z,10.80
2019-05-25T01:05:14.940Z,10.70
2019-05-25T01:07:43.372Z,7.92
2019-05-25T01:10:14.115Z,9.80
2019-05-25T01:12:42.917Z,9.95
2019-05-25T01:15:12.836Z,10.15
2019-05-25T01:17:41.530Z,8.28
2019-05-25T01:20:13.712Z,11.45
2019-05-25T01:22:42.169Z,12.50
2019-05-25T01:25:11.699Z,11.40
2019-05-25T01:27:40.142Z,6.92
2019-05-25T01:30:11.629Z,11.78
2019-05-25T01:32:40.069Z,10.95
2019-05-25T01:35:10.158Z,11.22
2019-05-25T01:37:38.701Z,11.78
2019-05-25T01:40:08.155Z,14.13
2019-05-25T01:42:36.944Z,9.40
2019-05-25T01:45:26.511Z,10.00
2019-05-25T01:47:55.287Z,11.50
2019-05-25T01:50:24.081Z,12.88
2019-05-25T01:52:52.510Z,12.37
2019-05-25T01:55:21.245Z,11.40
2019-05-25T01:57:50.033Z,9.80
2019-05-25T02:00:20.249Z,7.42
2019-05-25T02:02:48.720Z,11.68
2019-05-25T02:05:17.455Z,10.35
2019-05-25T02:07:46.229Z,11.97
2019-05-25T02:10:14.903Z,11.85
2019-05-25T02:12:44.287Z,12.13
2019-05-25T02:15:14.169Z,13.98
2019-05-25T02:17:42.950Z,9.55
2019-05-25T02:20:11.623Z,12.73
2019-05-25T02:22:40.090Z,11.73
2019-05-25T02:25:17.524Z,9.70
2019-05-25T02:27:40.209Z,11.18
2019-05-25T02:30:11.051Z,13.25
2019-05-25T02:32:39.510Z,10.82
2019-05-25T02:35:08.638Z,13.28
2019-05-25T02:37:37.473Z,9.20
2019-05-25T02:40:07.755Z,12.37
2019-05-25T02:42:36.201Z,7.17
2019-05-25T02:45:06.584Z,12.25
2019-05-25T02:47:35.415Z,11.78
2019-05-25T02:50:06.798Z,12.98
2019-05-25T02:52:35.257Z,9.75
2019-05-25T02:55:08.721Z,11.03
2019-05-25T02:57:37.474Z,10.58
2019-05-25T03:00:10.561Z,10.40
2019-05-25T03:02:39.743Z,11.77
2019-05-25T03:05:11.403Z,12.68
2019-05-25T03:07:41.250Z,11.38
2019-05-25T03:10:10.200Z,10.95
2019-05-25T03:12:44.652Z,15.43
2019-05-25T03:15:13.833Z,14.25
2019-05-25T03:17:43.559Z,13.50
2019-05-25T03:20:12.554Z,13.05
2019-05-25T03:22:41.426Z,14.98
2019-05-25T03:25:09.876Z,11.55
2019-05-25T03:27:39.287Z,17.42
2019-05-25T03:30:08.646Z,16.50
2019-05-25T03:32:37.437Z,14.58
2019-05-25T03:35:27.085Z,16.00
2019-05-25T03:37:55.807Z,18.82
2019-05-25T03:40:24.561Z,19.62
2019-05-25T03:42:53.740Z,18.05
2019-05-25T03:45:22.173Z,17.67
2019-05-25T03:47:51.033Z,17.37
2019-05-25T03:50:19.489Z,18.37
2019-05-25T03:52:48.029Z,21.62
2019-05-25T03:55:18.441Z,22.35
2019-05-25T03:57:46.886Z,20.85
2019-05-25T04:00:16.667Z,24.15
2019-05-25T04:02:45.162Z,21.05
2019-05-25T04:05:13.726Z,24.57
2019-05-25T04:07:42.914Z,22.98
2019-05-25T04:10:11.801Z,26.27
2019-05-25T04:12:41.545Z,25.88
2019-05-25T04:15:10.660Z,23.92
2019-05-25T04:17:39.163Z,26.65
2019-05-25T04:20:08.059Z,26.45
2019-05-25T04:22:36.492Z,27.02
2019-05-25T04:25:06.780Z,24.27
2019-05-25T04:27:35.222Z,20.65
2019-05-25T04:30:05.298Z,23.80
2019-05-25T04:32:34.110Z,22.50
2019-05-25T04:35:02.911Z,22.17
2019-05-25T04:37:31.705Z,31.17
2019-05-25T04:40:00.205Z,23.92
2019-05-25T04:42:28.687Z,21.87
2019-05-25T04:44:57.131Z,26.57
2019-05-25T04:47:27.410Z,22.27
2019-05-25T04:49:56.377Z,25.85
2019-05-25T04:52:25.169Z,21.77
2019-05-25T04:54:54.043Z,24.95
2019-05-25T04:57:22.855Z,21.62
2019-05-25T04:59:51.301Z,21.33
2019-05-25T05:02:20.053Z,20.25
2019-05-25T05:04:48.498Z,22.82
2019-05-25T05:07:16.948Z,21.60
2019-05-25T05:09:45.690Z,20.92
2019-05-25T05:12:16.431Z,17.48
2019-05-25T05:14:45.226Z,17.37
2019-05-25T05:17:13.669Z,17.95
2019-05-25T05:19:42.121Z,22.60
2019-05-25T05:22:10.562Z,18.65
2019-05-25T05:24:39.950Z,16.37
2019-05-25T05:27:08.401Z,14.80
2019-05-25T05:29:37.183Z,19.27
2019-05-25T05:32:05.700Z,15.93
2019-05-25T05:34:34.542Z,19.65
2019-05-25T05:37:03.809Z,17.73
2019-05-25T05:39:33.048Z,18.37
2019-05-25T05:42:04.399Z,15.68
2019-05-25T05:44:34.101Z,16.62
2019-05-25T05:47:04.434Z,15.35
2019-05-25T05:49:33.630Z,18.77
2019-05-25T05:52:04.214Z,16.55
2019-05-25T05:54:33.385Z,16.32
2019-05-25T05:57:11.666Z,17.35
2019-05-25T05:59:32.011Z,15.30
2019-05-25T06:02:00.778Z,14.78
2019-05-25T06:04:29.230Z,17.82
2019-05-25T06:06:57.941Z,15.70
2019-05-25T06:09:26.633Z,18.45
2019-05-25T06:11:55.081Z,19.73
2019-05-25T06:14:25.859Z,15.70
2019-05-25T06:16:54.656Z,18.17
2019-05-25T06:19:23.502Z,13.72
2019-05-25T06:21:51.950Z,16.27
2019-05-25T06:24:20.718Z,13.60
2019-05-25T06:26:49.157Z,14.95
2019-05-25T06:29:17.670Z,14.25
2019-05-25T06:31:46.483Z,12.55
2019-05-25T06:34:14.925Z,14.63
2019-05-25T06:36:43.667Z,15.93
2019-05-25T06:39:12.165Z,13.68
2019-05-25T06:41:40.621Z,19.23
2019-05-25T06:44:09.361Z,14.58
2019-05-25T06:46:39.792Z,14.33
2019-05-25T06:49:07.981Z,18.42
2019-05-25T06:51:56.085Z,15.23
2019-05-25T06:54:24.988Z,17.92
2019-05-25T06:56:53.480Z,16.95
2019-05-25T06:59:22.340Z,14.18
2019-05-25T07:01:50.798Z,16.30
2019-05-25T07:04:19.240Z,18.35
2019-05-25T07:06:47.703Z,13.85
2019-05-25T07:09:17.042Z,18.17
2019-05-25T07:11:45.789Z,18.02
2019-05-25T07:14:14.585Z,19.05
2019-05-25T07:16:43.046Z,18.98
2019-05-25T07:19:11.485Z,15.25
2019-05-25T07:21:40.005Z,18.60
2019-05-25T07:24:08.721Z,14.68
2019-05-25T07:26:37.194Z,14.28
2019-05-25T07:29:05.759Z,17.17
2019-05-25T07:31:34.505Z,14.45
2019-05-25T07:34:02.968Z,15.85
2019-05-25T07:36:31.765Z,15.68
2019-05-25T07:39:00.241Z,12.88
2019-05-25T07:41:28.708Z,18.12
2019-05-25T07:43:57.494Z,15.78
2019-05-25T07:46:25.949Z,13.75
2019-05-25T07:48:54.402Z,16.00
2019-05-25T07:51:22.845Z,14.35
2019-05-25T07:53:51.580Z,12.65
2019-05-25T07:56:20.371Z,17.52
2019-05-25T07:58:48.816Z,15.98
2019-05-25T08:01:17.553Z,16.60
2019-05-25T08:03:46.044Z,11.40
2019-05-25T08:06:14.544Z,10.32
2019-05-25T08:08:43.317Z,11.15
2019-05-25T08:11:11.757Z,13.55
2019-05-25T08:13:40.249Z,9.93
2019-05-25T08:16:08.753Z,9.80
2019-05-25T08:18:37.204Z,10.55
2019-05-25T08:21:05.800Z,8.20
2019-05-25T08:23:34.547Z,10.55
2019-05-25T08:26:03.009Z,12.03
2019-05-25T08:28:33.115Z,11.05
2019-05-25T08:31:01.899Z,12.80
2019-05-25T08:33:30.615Z,9.30
2019-05-25T08:35:59.411Z,12.03
2019-05-25T08:38:27.874Z,17.45
2019-05-25T08:40:56.303Z,10.58
2019-05-25T08:43:24.740Z,9.28
2019-05-25T08:45:53.201Z,9.55
2019-05-25T08:48:21.658Z,8.65
2019-05-25T08:50:50.522Z,7.75
2019-05-25T08:53:23.185Z,8.53
2019-05-25T08:55:49.390Z,7.60
2019-05-25T08:58:17.825Z,10.40
2019-05-25T09:00:46.305Z,6.12
2019-05-25T09:03:14.745Z,8.15
2019-05-25T09:05:43.518Z,10.58
2019-05-25T09:08:12.265Z,6.55
2019-05-25T09:10:40.713Z,8.68
2019-05-25T09:13:09.171Z,4.65
2019-05-25T09:15:37.634Z,6.50
2019-05-25T09:18:06.303Z,5.62
2019-05-25T09:20:37.160Z,7.17
2019-05-25T09:23:05.585Z,5.12
2019-05-25T09:25:34.054Z,6.03
2019-05-25T09:28:02.500Z,4.17
2019-05-25T09:30:31.202Z,4.90
2019-05-25T09:33:00.027Z,3.80
2019-05-25T09:35:28.517Z,3.65
2019-05-25T09:37:57.376Z,7.67
2019-05-25T09:40:25.845Z,6.17
2019-05-25T09:42:55.257Z,4.50
2019-05-25T09:45:24.461Z,3.25
2019-05-25T09:47:52.913Z,5.37
2019-05-25T09:50:21.349Z,3.50
2019-05-25T09:52:50.145Z,3.70
2019-05-25T09:55:19.380Z,2.50
2019-05-25T09:57:48.126Z,3.83
2019-05-25T10:00:17.521Z,3.12
2019-05-25T10:02:46.267Z,4.05
2019-05-25T10:05:16.414Z,2.90
2019-05-25T10:07:45.131Z,4.10
2019-05-25T10:10:14.032Z,5.92
2019-05-25T10:12:42.748Z,4.03
2019-05-25T10:15:12.633Z,5.85
2019-05-25T10:17:41.084Z,3.80
2019-05-25T10:20:10.933Z,7.22
2019-05-25T10:22:39.398Z,3.95
2019-05-25T10:25:08.647Z,4.33
2019-05-25T10:27:37.269Z,2.92
2019-05-25T10:30:07.850Z,5.67
2019-05-25T10:32:36.870Z,2.40
2019-05-25T10:35:08.093Z,2.98
2019-05-25T10:37:37.507Z,2.62
2019-05-25T10:40:07.696Z,3.58
2019-05-25T10:42:36.129Z,2.20
2019-05-25T10:45:08.179Z,3.25
2019-05-25T10:47:36.904Z,3.05
2019-05-25T10:50:08.104Z,4.55
2019-05-25T10:52:36.925Z,3.62
2019-05-25T10:55:10.338Z,4.70
2019-05-25T10:57:39.487Z,6.70
2019-05-25T11:00:28.850Z,5.35
2019-05-25T11:02:57.538Z,4.55
2019-05-25T11:05:26.365Z,7.25
2019-05-25T11:07:54.866Z,6.17
2019-05-25T11:10:23.492Z,5.45
2019-05-25T11:12:52.422Z,5.55
2019-05-25T11:15:21.214Z,6.90
2019-05-25T11:17:49.655Z,7.55
2019-05-25T11:20:19.689Z,4.55
2019-05-25T11:22:48.408Z,4.95
2019-05-25T11:25:17.178Z,6.47
2019-05-25T11:27:45.764Z,5.35
2019-05-25T11:30:14.645Z,4.83
2019-05-25T11:32:43.069Z,4.78
2019-05-25T11:35:11.958Z,5.45
2019-05-25T11:37:40.464Z,4.90
2019-05-25T11:40:09.568Z,7.87
2019-05-25T11:42:38.091Z,4.40
2019-05-25T11:45:07.708Z,11.28
2019-05-25T11:47:37.611Z,10.20
2019-05-25T11:50:09.727Z,5.95
2019-05-25T11:52:38.694Z,6.45
2019-05-25T11:55:08.885Z,9.08
2019-05-25T11:57:37.748Z,9.33
2019-05-25T12:00:23.351Z,10.32
2019-05-25T12:02:58.349Z,7.62
2019-05-25T12:05:27.158Z,6.72
2019-05-25T12:07:55.757Z,5.12
2019-05-25T12:10:24.532Z,7.78
2019-05-25T12:12:52.969Z,6.45
2019-05-25T12:15:21.701Z,4.25
2019-05-25T12:17:50.138Z,6.53
2019-05-25T12:20:19.382Z,7.10
2019-05-25T12:22:48.187Z,4.50
2019-05-25T12:25:16.770Z,5.53
2019-05-25T12:30:19.289Z,7.05
2019-05-25T12:32:47.727Z,8.78
2019-05-25T12:35:18.294Z,6.67
2019-05-25T12:37:46.737Z,8.08
2019-05-25T12:40:20.881Z,6.83
2019-05-25T12:42:49.671Z,8.65
2019-05-25T12:45:18.839Z,4.62
2019-05-25T12:47:47.591Z,6.72
2019-05-25T12:50:16.695Z,8.28
2019-05-25T12:52:45.372Z,10.68
2019-05-25T12:55:17.741Z,8.50
2019-05-25T12:57:46.265Z,10.72
2019-05-25T13:00:16.568Z,4.37
2019-05-25T13:02:45.432Z,5.75
2019-05-25T13:05:14.677Z,7.20
2019-05-25T13:07:43.142Z,8.13
2019-05-25T13:10:12.127Z,5.50
2019-05-25T13:12:40.878Z,5.97
2019-05-25T13:15:10.038Z,6.37
2019-05-25T13:17:38.654Z,7.05
2019-05-25T13:20:07.942Z,5.87
2019-05-25T13:22:36.374Z,4.85
2019-05-25T13:25:07.125Z,6.42
2019-05-25T13:27:35.765Z,9.03
2019-05-25T13:30:06.569Z,4.85
2019-05-25T13:32:35.344Z,4.33
2019-05-25T13:35:08.109Z,4.08
2019-05-25T13:37:36.817Z,6.12
2019-05-25T13:40:06.953Z,5.50
2019-05-25T13:42:35.419Z,4.50
2019-05-25T13:45:07.415Z,6.85
2019-05-25T13:47:36.384Z,5.67
2019-05-25T13:50:28.371Z,6.08
2019-05-25T13:52:56.996Z,8.05
2019-05-25T13:55:26.641Z,4.80
2019-05-25T13:57:55.522Z,4.92
2019-05-25T14:00:25.030Z,4.45
2019-05-25T14:02:54.022Z,5.03
2019-05-25T14:05:22.453Z,4.85
2019-05-25T14:07:51.197Z,6.70
2019-05-25T14:10:20.631Z,10.30
2019-05-25T14:12:49.146Z,13.00
2019-05-25T14:15:17.679Z,7.90
2019-05-25T14:17:46.189Z,4.08
2019-05-25T14:20:14.889Z,5.83
2019-05-25T14:22:43.633Z,5.35
2019-05-25T14:25:13.029Z,4.33
2019-05-25T14:27:41.486Z,3.72
2019-05-25T14:30:10.951Z,5.37
2019-05-25T14:32:39.561Z,3.65
2019-05-25T14:35:08.826Z,5.75
2019-05-25T14:37:44.373Z,4.53
2019-05-25T14:40:13.450Z,5.28
2019-05-25T14:42:42.258Z,4.60
2019-05-25T14:45:11.574Z,9.20
2019-05-25T14:47:40.054Z,6.67
2019-05-25T14:50:09.773Z,2.55
2019-05-25T14:52:38.658Z,6.55
2019-05-25T14:55:08.329Z,8.53
2019-05-25T14:57:36.778Z,4.92
2019-05-25T15:00:07.536Z,3.65
2019-05-25T15:02:35.994Z,3.83
2019-05-25T15:05:05.517Z,6.22
2019-05-25T15:07:37.209Z,3.85
2019-05-25T15:10:09.530Z,4.12
2019-05-25T15:12:38.388Z,6.60
2019-05-25T15:15:10.523Z,4.70
2019-05-25T15:17:38.973Z,6.35
2019-05-25T15:20:18.671Z,4.58
2019-05-25T15:22:47.502Z,5.15
2019-05-25T15:25:16.278Z,5.03
2019-05-25T15:27:45.087Z,4.92
2019-05-25T15:30:14.181Z,4.03
2019-05-25T15:32:42.988Z,3.98
2019-05-25T15:35:11.781Z,5.55
2019-05-25T15:37:40.565Z,7.67
2019-05-25T15:40:11.163Z,4.60
2019-05-25T15:42:39.919Z,3.92
2019-05-25T15:45:10.210Z,5.10
2019-05-25T15:47:39.002Z,5.15
2019-05-25T15:50:12.832Z,5.28
2019-05-25T15:52:41.642Z,6.03
2019-05-25T15:55:10.777Z,6.58
2019-05-25T15:57:39.505Z,7.03
2019-05-25T16:00:10.499Z,6.17
2019-05-25T16:02:39.216Z,4.78
2019-05-25T16:05:08.105Z,4.90
2019-05-25T16:07:42.276Z,5.42
2019-05-25T16:10:11.461Z,3.92
2019-05-25T16:12:39.903Z,4.83
2019-05-25T16:15:09.431Z,7.35
2019-05-25T16:17:38.734Z,5.22
2019-05-25T16:20:08.801Z,7.65
2019-05-25T16:22:37.660Z,7.85
2019-05-25T16:25:09.512Z,4.15
2019-05-25T16:27:38.526Z,6.65
2019-05-25T16:30:10.053Z,5.87
2019-05-25T16:33:10.123Z,5.58
2019-05-25T16:35:09.565Z,4.55
2019-05-25T16:37:38.299Z,4.90
2019-05-25T16:40:07.986Z,5.95
2019-05-25T16:42:38.867Z,5.50
2019-05-25T16:45:08.047Z,8.23
2019-05-25T16:47:36.937Z,7.03
2019-05-25T16:50:14.307Z,5.28
2019-05-25T16:52:40.154Z,4.78
2019-05-25T16:55:09.923Z,4.97
2019-05-25T16:57:38.498Z,6.47
2019-05-25T17:00:08.285Z,6.50
2019-05-25T17:02:37.275Z,5.53
2019-05-25T17:05:06.266Z,4.28
2019-05-25T17:07:34.784Z,5.12
2019-05-25T17:10:04.583Z,9.80
2019-05-25T17:12:33.069Z,5.58
2019-05-25T17:15:01.856Z,4.60
2019-05-25T17:17:30.382Z,6.85
2019-05-25T17:19:58.805Z,7.50
2019-05-25T17:22:27.273Z,8.53
2019-05-25T17:24:59.231Z,4.90
2019-05-25T17:27:25.873Z,5.05
2019-05-25T17:29:55.279Z,4.37
2019-05-25T17:32:23.785Z,4.90
2019-05-25T17:34:52.314Z,5.25
2019-05-25T17:37:21.408Z,4.67
2019-05-25T17:39:49.884Z,4.58
2019-05-25T17:42:18.369Z,5.50
2019-05-25T17:44:47.072Z,6.28
2019-05-25T17:47:15.598Z,5.47
2019-05-25T17:49:44.430Z,5.00
2019-05-25T17:52:13.330Z,6.85
2019-05-25T17:54:41.746Z,5.45
2019-05-25T17:57:10.199Z,4.62
2019-05-25T17:59:39.001Z,5.35
2019-05-25T18:02:07.895Z,4.17
2019-05-25T18:04:36.389Z,4.67
2019-05-25T18:07:05.793Z,6.12
2019-05-25T18:09:34.234Z,4.40
2019-05-25T18:12:02.746Z,4.45
2019-05-25T18:14:31.637Z,4.40
2019-05-25T18:17:00.128Z,4.80
2019-05-25T18:19:29.827Z,4.65
2019-05-25T18:21:59.107Z,4.17
2019-05-25T18:24:28.032Z,3.67
2019-05-25T18:26:56.717Z,7.17
2019-05-25T18:29:26.118Z,4.87
2019-05-25T18:31:54.546Z,6.53
2019-05-25T18:34:23.244Z,9.25
2019-05-25T18:36:51.991Z,4.62
2019-05-25T18:39:20.796Z,5.40
2019-05-25T18:41:50.266Z,5.65
2019-05-25T18:44:18.974Z,4.90
2019-05-25T18:46:47.772Z,5.20
2019-05-25T18:49:16.473Z,6.10
2019-05-25T18:51:44.945Z,5.90
2019-05-25T18:54:13.384Z,4.97
2019-05-25T18:56:41.829Z,5.60
2019-05-25T18:59:11.185Z,3.98
2019-05-25T19:01:39.687Z,12.68
2019-05-25T19:04:08.129Z,9.55
2019-05-25T19:06:38.834Z,16.32
2019-05-25T19:09:26.882Z,21.52
2019-05-25T19:11:55.333Z,19.07
2019-05-25T19:14:25.746Z,22.93
2019-05-25T19:16:54.193Z,18.40
2019-05-25T19:19:22.661Z,10.00
2019-05-25T19:21:51.101Z,9.63
2019-05-25T19:24:19.550Z,5.05
2019-05-25T19:26:48.025Z,5.50
2019-05-25T19:29:18.473Z,5.45
2019-05-25T19:31:47.213Z,6.47
2019-05-25T19:34:15.666Z,84.42
2019-05-25T19:36:44.402Z,156.20
2019-05-25T19:39:12.894Z,100.92
2019-05-25T19:41:41.688Z,52.23
2019-05-25T19:44:10.209Z,80.17
2019-05-25T19:46:40.644Z,88.67
2019-05-25T19:49:09.101Z,151.93
2019-05-25T19:51:37.874Z,114.37
2019-05-25T19:54:06.808Z,344.55
2019-05-25T19:56:35.329Z,560.10
2019-05-25T19:59:05.166Z,128.68
2019-05-25T20:01:33.653Z,185.65
2019-05-25T20:04:02.578Z,106.07
2019-05-25T20:06:31.007Z,40.45
2019-05-25T20:08:59.543Z,72.30
2019-05-25T20:11:28.318Z,45.30
2019-05-25T20:13:56.902Z,19.42
2019-05-25T20:16:26.358Z,19.55
2019-05-25T20:18:54.846Z,11.75
2019-05-25T20:21:23.329Z,14.90
2019-05-25T20:23:52.749Z,7.37
2019-05-25T20:26:21.243Z,8.03
2019-05-25T20:28:50.775Z,11.18
2019-05-25T20:31:39.329Z,10.30
2019-05-25T20:34:07.783Z,5.25
2019-05-25T20:36:36.221Z,6.03
2019-05-25T20:39:07.157Z,8.05
2019-05-25T20:41:36.942Z,7.20
2019-05-25T20:44:05.448Z,9.18
2019-05-25T20:46:34.924Z,7.58
2019-05-25T20:49:03.358Z,9.08
2019-05-25T20:51:31.809Z,10.00
2019-05-25T20:54:00.242Z,8.35
2019-05-25T20:56:28.694Z,11.28
2019-05-25T20:58:57.128Z,10.78
2019-05-25T21:01:25.796Z,8.15
2019-05-25T21:03:55.241Z,6.67
2019-05-25T21:06:23.674Z,6.35
2019-05-25T21:08:53.450Z,6.87
2019-05-25T21:11:21.905Z,5.83
2019-05-25T21:13:50.347Z,7.00
2019-05-25T21:16:22.745Z,6.08
2019-05-25T21:18:51.190Z,7.10
2019-05-25T21:21:19.974Z,7.95
2019-05-25T21:23:48.762Z,7.65
2019-05-25T21:26:17.220Z,9.58
2019-05-25T21:28:45.668Z,8.43
2019-05-25T21:31:14.108Z,10.38
2019-05-25T21:33:42.905Z,12.47
2019-05-25T21:36:11.705Z,9.38
2019-05-25T21:38:45.142Z,8.80
2019-05-25T21:41:10.822Z,8.05
2019-05-25T21:43:39.337Z,9.60
2019-05-25T21:46:08.098Z,9.58
2019-05-25T21:48:36.549Z,12.10
2019-05-25T21:51:05.053Z,10.48
2019-05-25T21:53:33.517Z,9.20
2019-05-25T21:56:02.262Z,9.78
2019-05-25T21:58:30.788Z,14.10
2019-05-25T22:00:59.444Z,10.03
2019-05-25T22:03:27.906Z,15.45
2019-05-25T22:05:56.622Z,13.13
2019-05-25T22:08:25.390Z,14.00
2019-05-25T22:10:54.751Z,11.80
2019-05-25T22:13:28.414Z,13.22
2019-05-25T22:15:53.630Z,14.25
2019-05-25T22:18:22.150Z,12.53
2019-05-25T22:20:51.905Z,15.53
2019-05-25T22:23:22.345Z,12.80
2019-05-25T22:25:50.998Z,15.63
2019-05-25T22:28:20.385Z,14.35
2019-05-25T22:30:49.209Z,12.20
2019-05-25T22:33:18.193Z,14.85
2019-05-25T22:35:46.978Z,12.43
2019-05-25T22:38:15.419Z,13.80
2019-05-25T22:40:45.229Z,13.65
2019-05-25T22:43:14.016Z,13.48
2019-05-25T22:45:43.761Z,12.88
2019-05-25T22:48:12.190Z,13.35
2019-05-25T22:50:40.715Z,14.85
2019-05-25T22:53:09.163Z,13.65
2019-05-25T22:55:38.605Z,15.65
2019-05-25T22:58:07.529Z,16.20
2019-05-25T23:00:36.933Z,15.98
2019-05-25T23:03:05.393Z,13.30
2019-05-25T23:05:35.008Z,13.98
2019-05-25T23:08:04.454Z,17.85
2019-05-25T23:10:33.338Z,14.30
2019-05-25T23:13:02.206Z,15.13
2019-05-25T23:15:30.772Z,15.32
2019-05-25T23:17:59.378Z,16.70
2019-05-25T23:20:28.857Z,15.23
2019-05-25T23:22:57.557Z,13.90
2019-05-25T23:25:26.378Z,13.98
2019-05-25T23:27:54.909Z,15.70
2019-05-25T23:30:24.011Z,14.40
2019-05-25T23:32:52.822Z,13.10
2019-05-25T23:35:21.268Z,14.13
2019-05-25T23:37:50.101Z,14.90
2019-05-25T23:40:18.722Z,16.70
2019-05-25T23:42:47.156Z,17.17
2019-05-25T23:45:16.044Z,21.10
2019-05-25T23:47:44.762Z,20.80
2019-05-25T23:50:13.564Z,21.85
2019-05-25T23:52:42.005Z,23.07
2019-05-25T23:55:11.626Z,22.35
2019-05-25T23:57:40.205Z,21.45
